sensor_id;sensor_type;location;lat;lon;timestamp;temperature;humidity
9450;DHT22;4763;48.370;10.874;2022-09-03T02:35:18;14.10;99.90
9450;DHT22;4763;48.370;10.874;2022-09-03T03:03:48;13.80;99.90
9450;DHT22;4763;48.370;10.874;2022-09-03T03:08:48;13.80;99.90
9450;DHT22;4763;48.370;10.874;2022-09-03T03:11:16;13.90;99.90
9450;DHT22;4763;48.370;10.874;2022-09-03T03:13:44;13.80;99.90
9450;DHT22;4763;48.370;10.874;2022-09-03T03:18:43;13.80;99.90
9450;DHT22;4763;48.370;10.874;2022-09-03T03:21:14;13.80;99.90
9450;DHT22;4763;48.370;10.874;2022-09-03T03:23:42;13.70;99.90
9450;DHT22;4763;48.370;10.874;2022-09-03T03:28:44;13.70;99.90
9450;DHT22;4763;48.370;10.874;2022-09-03T03:31:14;13.70;99.90
9450;DHT22;4763;48.370;10.874;2022-09-03T03:33:42;13.60;99.90
9450;DHT22;4763;48.370;10.874;2022-09-03T03:38:39;13.70;99.90
9450;DHT22;4763;48.370;10.874;2022-09-03T03:41:08;13.70;99.90
9450;DHT22;4763;48.370;10.874;2022-09-03T03:43:36;13.70;99.90
9450;DHT22;4763;48.370;10.874;2022-09-03T03:48:38;13.70;99.90
9450;DHT22;4763;48.370;10.874;2022-09-03T03:51:07;13.80;99.90
9450;DHT22;4763;48.370;10.874;2022-09-03T03:53:36;13.80;99.90
9450;DHT22;4763;48.370;10.874;2022-09-03T04:03:57;13.80;99.90
9450;DHT22;4763;48.370;10.874;2022-09-03T04:08:56;13.70;99.90
9450;DHT22;4763;48.370;10.874;2022-09-03T04:11:24;13.80;99.90
9450;DHT22;4763;48.370;10.874;2022-09-03T04:13:52;13.80;99.90
9450;DHT22;4763;48.370;10.874;2022-09-03T05:13:29;14.10;99.90
9450;DHT22;4763;48.370;10.874;2022-09-03T05:21:11;14.10;99.90
9450;DHT22;4763;48.370;10.874;2022-09-03T05:23:39;14.10;99.90
9450;DHT22;4763;48.370;10.874;2022-09-03T10:52:26;20.30;99.90
9450;DHT22;4763;48.370;10.874;2022-09-03T10:55:10;20.30;99.90
9450;DHT22;4763;48.370;10.874;2022-09-03T11:22:35;21.10;99.90
9450;DHT22;4763;48.370;10.874;2022-09-03T11:25:05;21.40;99.90
9450;DHT22;4763;48.370;10.874;2022-09-03T11:40:15;23.00;99.90
9450;DHT22;4763;48.370;10.874;2022-09-03T11:42:45;22.90;99.90
9450;DHT22;4763;48.370;10.874;2022-09-03T11:45:21;22.90;99.90
9450;DHT22;4763;48.370;10.874;2022-09-03T12:17:34;24.90;99.90
9450;DHT22;4763;48.370;10.874;2022-09-03T12:20:11;25.50;99.90
9450;DHT22;4763;48.370;10.874;2022-09-03T12:22:39;25.70;99.90
9450;DHT22;4763;48.370;10.874;2022-09-03T12:25:10;25.50;99.90
9450;DHT22;4763;48.370;10.874;2022-09-03T12:27:39;25.70;99.90
9450;DHT22;4763;48.370;10.874;2022-09-03T12:30:15;26.00;99.90
9450;DHT22;4763;48.370;10.874;2022-09-03T12:32:44;26.30;99.90
9450;DHT22;4763;48.370;10.874;2022-09-03T12:35:13;25.80;99.90
9450;DHT22;4763;48.370;10.874;2022-09-03T12:37:42;25.30;99.90
9450;DHT22;4763;48.370;10.874;2022-09-03T12:40:17;25.10;99.90
9450;DHT22;4763;48.370;10.874;2022-09-03T12:42:46;25.10;99.90
9450;DHT22;4763;48.370;10.874;2022-09-03T12:45:14;24.90;99.90
9450;DHT22;4763;48.370;10.874;2022-09-03T12:47:46;24.70;99.90
9450;DHT22;4763;48.370;10.874;2022-09-03T12:50:15;24.60;99.90
9450;DHT22;4763;48.370;10.874;2022-09-03T12:52:45;24.50;99.90
9450;DHT22;4763;48.370;10.874;2022-09-03T12:55:28;24.30;99.90
9450;DHT22;4763;48.370;10.874;2022-09-03T12:58:03;24.00;99.90
9450;DHT22;4763;48.370;10.874;2022-09-03T13:00:34;23.90;99.90
9450;DHT22;4763;48.370;10.874;2022-09-03T13:03:06;23.80;99.90
9450;DHT22;4763;48.370;10.874;2022-09-03T13:05:39;23.70;99.90
9450;DHT22;4763;48.370;10.874;2022-09-03T13:08:08;23.50;99.90
9450;DHT22;4763;48.370;10.874;2022-09-03T13:10:38;23.40;99.90
9450;DHT22;4763;48.370;10.874;2022-09-03T13:13:17;23.30;99.90
9450;DHT22;4763;48.370;10.874;2022-09-03T13:15:59;23.10;99.90
9450;DHT22;4763;48.370;10.874;2022-09-03T13:29:42;22.10;99.90
9450;DHT22;4763;48.370;10.874;2022-09-03T13:32:25;21.00;99.90
9450;DHT22;4763;48.370;10.874;2022-09-03T13:34:59;20.30;99.90
9450;DHT22;4763;48.370;10.874;2022-09-03T13:37:34;19.80;99.90
9450;DHT22;4763;48.370;10.874;2022-09-03T13:40:12;19.30;99.90
9450;DHT22;4763;48.370;10.874;2022-09-03T13:42:44;19.50;99.90
9450;DHT22;4763;48.370;10.874;2022-09-03T13:45:27;19.60;99.90
9450;DHT22;4763;48.370;10.874;2022-09-03T14:15:42;20.00;99.90
9450;DHT22;4763;48.370;10.874;2022-09-03T14:27:12;19.80;99.90
9450;DHT22;4763;48.370;10.874;2022-09-03T14:29:50;19.80;99.90
9450;DHT22;4763;48.370;10.874;2022-09-03T15:14:13;21.00;99.90
9450;DHT22;4763;48.370;10.874;2022-09-03T15:24:39;20.30;99.90
9450;DHT22;4763;48.370;10.874;2022-09-03T21:15:21;15.50;99.90
9450;DHT22;4763;48.370;10.874;2022-09-03T21:18:00;15.40;99.90
9450;DHT22;4763;48.370;10.874;2022-09-03T21:20:35;15.40;99.90
9450;DHT22;4763;48.370;10.874;2022-09-03T21:23:17;15.40;99.90
9450;DHT22;4763;48.370;10.874;2022-09-03T21:25:51;15.40;99.90
9450;DHT22;4763;48.370;10.874;2022-09-03T21:28:23;15.40;99.90
9450;DHT22;4763;48.370;10.874;2022-09-03T21:30:58;15.30;99.90
9450;DHT22;4763;48.370;10.874;2022-09-03T21:33:28;15.10;99.90
9450;DHT22;4763;48.370;10.874;2022-09-03T21:36:02;15.30;99.90
9450;DHT22;4763;48.370;10.874;2022-09-03T21:38:34;15.30;99.90
9450;DHT22;4763;48.370;10.874;2022-09-03T21:41:10;15.30;99.90
9450;DHT22;4763;48.370;10.874;2022-09-03T21:43:44;15.30;99.90
9450;DHT22;4763;48.370;10.874;2022-09-03T21:46:18;15.40;99.90
9450;DHT22;4763;48.370;10.874;2022-09-03T21:48:50;15.30;99.90
9450;DHT22;4763;48.370;10.874;2022-09-03T21:51:23;15.40;99.90
9450;DHT22;4763;48.370;10.874;2022-09-03T21:53:56;15.40;99.90
9450;DHT22;4763;48.370;10.874;2022-09-03T21:56:55;15.30;99.90
9450;DHT22;4763;48.370;10.874;2022-09-03T22:02:29;15.40;99.90
9450;DHT22;4763;48.370;10.874;2022-09-03T22:04:59;15.40;99.90
9450;DHT22;4763;48.370;10.874;2022-09-03T22:07:41;15.20;99.90
9450;DHT22;4763;48.370;10.874;2022-09-03T22:10:14;15.10;99.90
9450;DHT22;4763;48.370;10.874;2022-09-03T22:12:50;15.20;99.90
9450;DHT22;4763;48.370;10.874;2022-09-03T22:15:19;15.20;99.90
